sensor_id;sensor_type;location;lat;lon;timestamp;pressure;altitude;pressure_sealevel;temperature;humidity
63568;BME280;49715;42.386;20.434;2023-03-01T00:01:26;97817.69;;;7.94;64.45
63568;BME280;49715;42.386;20.434;2023-03-01T00:04:08;97825.31;;;7.97;64.36
63568;BME280;49715;42.386;20.434;2023-03-01T00:06:35;97814.59;;;7.89;64.46
63568;BME280;49715;42.386;20.434;2023-03-01T00:09:04;97819.38;;;7.95;64.48
63568;BME280;49715;42.386;20.434;2023-03-01T00:11:34;97812.44;;;7.94;64.62
63568;BME280;49715;42.386;20.434;2023-03-01T00:14:02;97809.81;;;7.94;64.45
63568;BME280;49715;42.386;20.434;2023-03-01T00:16:37;97802.69;;;7.85;64.37
63568;BME280;49715;42.386;20.434;2023-03-01T00:19:12;97806.88;;;7.88;64.45
63568;BME280;49715;42.386;20.434;2023-03-01T00:21:50;97818.78;;;7.92;64.29
63568;BME280;49715;42.386;20.434;2023-03-01T00:24:18;97806.53;;;7.81;64.39
63568;BME280;49715;42.386;20.434;2023-03-01T00:26:45;97814.28;;;7.83;64.63
63568;BME280;49715;42.386;20.434;2023-03-01T00:29:14;97816.06;;;7.82;64.71
63568;BME280;49715;42.386;20.434;2023-03-01T00:31:41;97796.66;;;7.73;64.83
63568;BME280;49715;42.386;20.434;2023-03-01T00:34:07;97815.81;;;7.85;64.62
63568;BME280;49715;42.386;20.434;2023-03-01T00:36:35;97804.38;;;7.86;64.94
63568;BME280;49715;42.386;20.434;2023-03-01T00:39:05;97791.34;;;7.85;64.88
63568;BME280;49715;42.386;20.434;2023-03-01T00:41:32;97805.91;;;7.89;64.87
63568;BME280;49715;42.386;20.434;2023-03-01T00:44:02;97789.09;;;7.80;64.84
63568;BME280;49715;42.386;20.434;2023-03-01T00:46:29;97807.94;;;7.85;65.05
63568;BME280;49715;42.386;20.434;2023-03-01T00:48:59;97787.06;;;7.84;64.78
63568;BME280;49715;42.386;20.434;2023-03-01T00:51:34;97782.78;;;7.83;65.09
63568;BME280;49715;42.386;20.434;2023-03-01T00:54:01;97789.31;;;7.88;64.80
63568;BME280;49715;42.386;20.434;2023-03-01T00:56:29;97781.81;;;7.84;64.98
63568;BME280;49715;42.386;20.434;2023-03-01T00:58:57;97778.50;;;7.82;64.87
63568;BME280;49715;42.386;20.434;2023-03-01T01:01:29;97781.38;;;7.79;64.91
63568;BME280;49715;42.386;20.434;2023-03-01T01:04:19;97779.94;;;7.74;65.21
63568;BME280;49715;42.386;20.434;2023-03-01T01:06:47;97772.66;;;7.78;65.05
63568;BME280;49715;42.386;20.434;2023-03-01T01:09:16;97760.63;;;7.75;65.05
63568;BME280;49715;42.386;20.434;2023-03-01T01:11:50;97759.78;;;7.75;65.27
63568;BME280;49715;42.386;20.434;2023-03-01T01:14:18;97759.31;;;7.81;65.24
63568;BME280;49715;42.386;20.434;2023-03-01T01:16:47;97743.94;;;7.77;65.25
63568;BME280;49715;42.386;20.434;2023-03-01T01:19:28;97750.97;;;7.76;65.27
63568;BME280;49715;42.386;20.434;2023-03-01T01:21:58;97738.09;;;7.73;65.49
63568;BME280;49715;42.386;20.434;2023-03-01T01:24:24;97740.22;;;7.79;65.28
63568;BME280;49715;42.386;20.434;2023-03-01T01:26:50;97734.38;;;7.75;65.19
63568;BME280;49715;42.386;20.434;2023-03-01T01:29:17;97736.75;;;7.79;65.13
63568;BME280;49715;42.386;20.434;2023-03-01T01:31:44;97741.63;;;7.83;65.16
63568;BME280;49715;42.386;20.434;2023-03-01T01:34:19;97731.50;;;7.79;64.81
63568;BME280;49715;42.386;20.434;2023-03-01T01:36:51;97732.47;;;7.78;64.90
63568;BME280;49715;42.386;20.434;2023-03-01T01:39:20;97729.13;;;7.75;65.17
63568;BME280;49715;42.386;20.434;2023-03-01T01:41:47;97728.66;;;7.70;66.24
63568;BME280;49715;42.386;20.434;2023-03-01T01:44:23;97719.59;;;7.74;65.26
63568;BME280;49715;42.386;20.434;2023-03-01T01:47:00;97714.34;;;7.74;65.12
63568;BME280;49715;42.386;20.434;2023-03-01T01:55:09;97712.75;;;7.62;64.70
63568;BME280;49715;42.386;20.434;2023-03-01T01:57:41;97720.03;;;7.59;64.84
63568;BME280;49715;42.386;20.434;2023-03-01T02:00:16;97728.03;;;7.57;64.92
63568;BME280;49715;42.386;20.434;2023-03-01T02:02:45;97723.84;;;7.55;64.90
63568;BME280;49715;42.386;20.434;2023-03-01T02:07:53;97720.63;;;7.51;65.11
63568;BME280;49715;42.386;20.434;2023-03-01T02:10:21;97719.09;;;7.48;65.24
63568;BME280;49715;42.386;20.434;2023-03-01T02:12:49;97705.66;;;7.42;65.28
63568;BME280;49715;42.386;20.434;2023-03-01T02:15:15;97712.22;;;7.36;66.07
63568;BME280;49715;42.386;20.434;2023-03-01T02:17:42;97713.03;;;7.37;65.42
63568;BME280;49715;42.386;20.434;2023-03-01T02:22:46;97708.38;;;7.40;65.24
63568;BME280;49715;42.386;20.434;2023-03-01T02:27:53;97705.56;;;7.32;65.19
63568;BME280;49715;42.386;20.434;2023-03-01T02:30:25;97695.94;;;7.21;65.26
63568;BME280;49715;42.386;20.434;2023-03-01T02:32:53;97708.31;;;7.31;65.18
63568;BME280;49715;42.386;20.434;2023-03-01T02:35:23;97698.91;;;7.28;65.50
63568;BME280;49715;42.386;20.434;2023-03-01T02:37:49;97702.34;;;7.29;65.35
63568;BME280;49715;42.386;20.434;2023-03-01T02:40:18;97696.38;;;7.27;65.33
63568;BME280;49715;42.386;20.434;2023-03-01T02:42:51;97697.25;;;7.27;65.24
63568;BME280;49715;42.386;20.434;2023-03-01T02:45:20;97694.63;;;7.27;65.35
63568;BME280;49715;42.386;20.434;2023-03-01T02:47:46;97685.91;;;7.27;65.30
63568;BME280;49715;42.386;20.434;2023-03-01T02:50:24;97687.59;;;7.28;65.21
63568;BME280;49715;42.386;20.434;2023-03-01T02:53:23;97684.13;;;7.27;64.94
63568;BME280;49715;42.386;20.434;2023-03-01T02:55:47;97696.28;;;7.28;65.51
63568;BME280;49715;42.386;20.434;2023-03-01T02:58:14;97696.53;;;7.25;65.92
63568;BME280;49715;42.386;20.434;2023-03-01T03:00:42;97695.78;;;7.34;65.24
63568;BME280;49715;42.386;20.434;2023-03-01T03:03:19;97692.06;;;7.37;65.16
63568;BME280;49715;42.386;20.434;2023-03-01T03:05:47;97688.63;;;7.36;65.17
63568;BME280;49715;42.386;20.434;2023-03-01T03:08:15;97688.25;;;7.41;64.91
63568;BME280;49715;42.386;20.434;2023-03-01T03:10:50;97678.03;;;7.38;65.02
63568;BME280;49715;42.386;20.434;2023-03-01T03:13:18;97691.81;;;7.40;65.21
63568;BME280;49715;42.386;20.434;2023-03-01T03:15:45;97678.13;;;7.36;65.14
63568;BME280;49715;42.386;20.434;2023-03-01T03:18:15;97677.19;;;7.37;65.09
63568;BME280;49715;42.386;20.434;2023-03-01T03:20:43;97671.69;;;7.40;65.21
63568;BME280;49715;42.386;20.434;2023-03-01T03:23:10;97668.59;;;7.35;65.57
63568;BME280;49715;42.386;20.434;2023-03-01T03:25:36;97675.13;;;7.41;65.36
63568;BME280;49715;42.386;20.434;2023-03-01T03:28:05;97675.84;;;7.43;64.91
63568;BME280;49715;42.386;20.434;2023-03-01T03:30:38;97673.94;;;7.45;64.93
63568;BME280;49715;42.386;20.434;2023-03-01T03:33:06;97663.94;;;7.39;64.91
63568;BME280;49715;42.386;20.434;2023-03-01T03:35:38;97674.91;;;7.44;65.01
63568;BME280;49715;42.386;20.434;2023-03-01T03:38:07;97666.44;;;7.40;65.01
63568;BME280;49715;42.386;20.434;2023-03-01T03:40:46;97681.94;;;7.43;65.14
63568;BME280;49715;42.386;20.434;2023-03-01T03:43:16;97679.31;;;7.43;65.26
63568;BME280;49715;42.386;20.434;2023-03-01T03:45:47;97673.09;;;7.44;65.03
63568;BME280;49715;42.386;20.434;2023-03-01T03:48:14;97683.09;;;7.51;65.02
63568;BME280;49715;42.386;20.434;2023-03-01T03:50:41;97681.28;;;7.51;65.37
63568;BME280;49715;42.386;20.434;2023-03-01T03:53:10;97665.09;;;7.46;64.98
63568;BME280;49715;42.386;20.434;2023-03-01T03:55:37;97679.75;;;7.48;64.91
63568;BME280;49715;42.386;20.434;2023-03-01T03:58:09;97679.75;;;7.48;65.00
63568;BME280;49715;42.386;20.434;2023-03-01T04:00:41;97678.09;;;7.47;64.97
63568;BME280;49715;42.386;20.434;2023-03-01T04:03:09;97678.09;;;7.47;65.01
63568;BME280;49715;42.386;20.434;2023-03-01T04:05:37;97675.34;;;7.49;64.87
63568;BME280;49715;42.386;20.434;2023-03-01T04:08:04;97668.81;;;7.43;65.01
63568;BME280;49715;42.386;20.434;2023-03-01T04:10:38;97673.34;;;7.41;65.03
63568;BME280;49715;42.386;20.434;2023-03-01T04:13:06;97680.47;;;7.51;64.87
63568;BME280;49715;42.386;20.434;2023-03-01T04:15:33;97677.28;;;7.47;64.68
63568;BME280;49715;42.386;20.434;2023-03-01T04:18:00;97685.25;;;7.45;65.20
63568;BME280;49715;42.386;20.434;2023-03-01T04:20:30;97685.38;;;7.44;65.03
63568;BME280;49715;42.386;20.434;2023-03-01T04:23:01;97677.88;;;7.39;64.99
63568;BME280;49715;42.386;20.434;2023-03-01T04:25:57;97694.91;;;7.45;65.19
63568;BME280;49715;42.386;20.434;2023-03-01T04:28:31;97695.38;;;7.50;64.83
63568;BME280;49715;42.386;20.434;2023-03-01T04:31:04;97691.78;;;7.51;64.93
63568;BME280;49715;42.386;20.434;2023-03-01T04:33:44;97691.78;;;7.51;64.90
63568;BME280;49715;42.386;20.434;2023-03-01T04:36:12;97685.38;;;7.44;64.85
63568;BME280;49715;42.386;20.434;2023-03-01T04:38:40;97706.22;;;7.45;64.69
63568;BME280;49715;42.386;20.434;2023-03-01T04:41:09;97700.16;;;7.45;65.04
63568;BME280;49715;42.386;20.434;2023-03-01T04:43:36;97698.63;;;7.42;64.92
63568;BME280;49715;42.386;20.434;2023-03-01T04:46:05;97714.81;;;7.47;64.88
63568;BME280;49715;42.386;20.434;2023-03-01T04:48:33;97710.66;;;7.45;64.90
63568;BME280;49715;42.386;20.434;2023-03-01T04:51:00;97713.84;;;7.48;65.27
63568;BME280;49715;42.386;20.434;2023-03-01T04:53:27;97700.16;;;7.45;64.73
63568;BME280;49715;42.386;20.434;2023-03-01T04:55:54;97713.03;;;7.48;64.87
63568;BME280;49715;42.386;20.434;2023-03-01T04:58:23;97701.25;;;7.42;64.86
63568;BME280;49715;42.386;20.434;2023-03-01T05:00:50;97717.44;;;7.47;64.95
63568;BME280;49715;42.386;20.434;2023-03-01T05:03:16;97708.38;;;7.40;64.82
63568;BME280;49715;42.386;20.434;2023-03-01T05:05:46;97693.66;;;7.28;65.08
63568;BME280;49715;42.386;20.434;2023-03-01T05:08:13;97717.53;;;7.46;64.93
63568;BME280;49715;42.386;20.434;2023-03-01T05:10:46;97726.75;;;7.52;64.91
63568;BME280;49715;42.386;20.434;2023-03-01T05:13:13;97726.84;;;7.50;65.23
63568;BME280;49715;42.386;20.434;2023-03-01T05:15:48;97706.41;;;7.33;65.15
63568;BME280;49715;42.386;20.434;2023-03-01T05:18:15;97726.97;;;7.48;65.00
63568;BME280;49715;42.386;20.434;2023-03-01T05:20:47;97716.03;;;7.43;65.49
63568;BME280;49715;42.386;20.434;2023-03-01T05:23:13;97715.56;;;7.38;65.49
63568;BME280;49715;42.386;20.434;2023-03-01T05:25:39;97697.47;;;7.24;65.62
63568;BME280;49715;42.386;20.434;2023-03-01T05:28:10;97719.16;;;7.37;65.50
63568;BME280;49715;42.386;20.434;2023-03-01T05:30:37;97724.13;;;7.40;65.51
63568;BME280;49715;42.386;20.434;2023-03-01T05:33:07;97717.72;;;7.33;65.80
63568;BME280;49715;42.386;20.434;2023-03-01T05:35:40;97714.28;;;7.33;65.79
63568;BME280;49715;42.386;20.434;2023-03-01T05:38:12;97711.88;;;7.30;66.20
63568;BME280;49715;42.386;20.434;2023-03-01T05:40:42;97713.31;;;7.34;65.89
63568;BME280;49715;42.386;20.434;2023-03-01T05:43:10;97720.91;;;7.37;66.10
63568;BME280;49715;42.386;20.434;2023-03-01T05:45:37;97720.81;;;7.38;66.00
63568;BME280;49715;42.386;20.434;2023-03-01T05:48:05;97721.78;;;7.37;66.03
63568;BME280;49715;42.386;20.434;2023-03-01T05:50:33;97728.44;;;7.30;67.07
63568;BME280;49715;42.386;20.434;2023-03-01T05:53:04;97725.31;;;7.36;66.22
63568;BME280;49715;42.386;20.434;2023-03-01T05:55:35;97727.84;;;7.38;66.11
63568;BME280;49715;42.386;20.434;2023-03-01T05:58:03;97730.19;;;7.41;66.07
63568;BME280;49715;42.386;20.434;2023-03-01T06:00:31;97720.69;;;7.40;66.18
63568;BME280;49715;42.386;20.434;2023-03-01T06:02:59;97723.75;;;7.45;66.08
63568;BME280;49715;42.386;20.434;2023-03-01T06:05:27;97734.00;;;7.48;65.88
63568;BME280;49715;42.386;20.434;2023-03-01T06:07:55;97732.00;;;7.40;65.68
63568;BME280;49715;42.386;20.434;2023-03-01T06:10:22;97711.88;;;7.30;65.91
63568;BME280;49715;42.386;20.434;2023-03-01T06:12:48;97743.13;;;7.33;66.90
63568;BME280;49715;42.386;20.434;2023-03-01T06:15:16;97739.66;;;7.32;66.04
63568;BME280;49715;42.386;20.434;2023-03-01T06:17:44;97739.66;;;7.32;66.04
63568;BME280;49715;42.386;20.434;2023-03-01T06:20:17;97743.34;;;7.30;65.96
63568;BME280;49715;42.386;20.434;2023-03-01T06:22:46;97749.31;;;7.20;65.83
63568;BME280;49715;42.386;20.434;2023-03-01T06:25:16;97748.25;;;7.12;65.96
63568;BME280;49715;42.386;20.434;2023-03-01T06:27:43;97751.22;;;7.07;66.01
63568;BME280;49715;42.386;20.434;2023-03-01T06:30:13;97756.47;;;7.07;66.03
63568;BME280;49715;42.386;20.434;2023-03-01T06:32:41;97744.31;;;7.06;66.41
63568;BME280;49715;42.386;20.434;2023-03-01T06:35:12;97737.06;;;7.10;66.27
63568;BME280;49715;42.386;20.434;2023-03-01T06:37:40;97722.78;;;7.14;66.42
63568;BME280;49715;42.386;20.434;2023-03-01T06:40:09;97731.69;;;7.22;66.19
63568;BME280;49715;42.386;20.434;2023-03-01T06:42:39;97741.69;;;7.29;66.03
63568;BME280;49715;42.386;20.434;2023-03-01T06:45:08;97745.38;;;7.37;66.04
63568;BME280;49715;42.386;20.434;2023-03-01T06:47:36;97744.63;;;7.35;65.75
63568;BME280;49715;42.386;20.434;2023-03-01T06:50:09;97725.97;;;7.29;65.79
63568;BME280;49715;42.386;20.434;2023-03-01T06:52:41;97754.16;;;7.47;65.82
63568;BME280;49715;42.386;20.434;2023-03-01T06:55:31;97752.09;;;7.51;65.73
63568;BME280;49715;42.386;20.434;2023-03-01T06:58:24;97704.06;;;7.18;65.47
63568;BME280;49715;42.386;20.434;2023-03-01T07:00:54;97753.16;;;7.60;65.72
63568;BME280;49715;42.386;20.434;2023-03-01T07:03:20;97753.88;;;7.62;65.55
63568;BME280;49715;42.386;20.434;2023-03-01T07:05:50;97746.03;;;7.62;65.40
63568;BME280;49715;42.386;20.434;2023-03-01T07:08:20;97722.19;;;7.54;65.53
63568;BME280;49715;42.386;20.434;2023-03-01T07:11:06;97743.03;;;7.66;65.27
63568;BME280;49715;42.386;20.434;2023-03-01T07:13:50;97720.75;;;7.49;65.44
63568;BME280;49715;42.386;20.434;2023-03-01T07:16:34;97717.41;;;7.59;65.33
63568;BME280;49715;42.386;20.434;2023-03-01T07:19:02;97721.91;;;7.68;65.15
63568;BME280;49715;42.386;20.434;2023-03-01T07:21:28;97725.81;;;7.73;65.12
63568;BME280;49715;42.386;20.434;2023-03-01T07:24:23;97727.84;;;7.70;65.12
63568;BME280;49715;42.386;20.434;2023-03-01T07:26:53;97730.38;;;7.60;65.24
63568;BME280;49715;42.386;20.434;2023-03-01T07:29:23;97743.03;;;7.55;65.37
63568;BME280;49715;42.386;20.434;2023-03-01T07:32:25;97698.78;;;7.30;65.42
63568;BME280;49715;42.386;20.434;2023-03-01T07:35:06;97745.78;;;7.54;65.49
63568;BME280;49715;42.386;20.434;2023-03-01T07:37:35;97734.38;;;7.43;65.58
63568;BME280;49715;42.386;20.434;2023-03-01T07:40:33;97738.44;;;7.47;65.41
63568;BME280;49715;42.386;20.434;2023-03-01T07:43:22;97676.41;;;7.14;65.38
63568;BME280;49715;42.386;20.434;2023-03-01T07:46:16;97737.09;;;7.53;65.52
63568;BME280;49715;42.386;20.434;2023-03-01T07:49:42;97734.78;;;7.60;65.29
63568;BME280;49715;42.386;20.434;2023-03-01T07:52:15;97682.66;;;7.34;65.24
63568;BME280;49715;42.386;20.434;2023-03-01T07:54:48;97663.50;;;7.34;65.16
63568;BME280;49715;42.386;20.434;2023-03-01T07:57:16;97724.25;;;7.71;65.10
63568;BME280;49715;42.386;20.434;2023-03-01T07:59:43;97733.69;;;7.73;65.02
63568;BME280;49715;42.386;20.434;2023-03-01T08:02:10;97724.38;;;7.69;65.02
63568;BME280;49715;42.386;20.434;2023-03-01T08:04:41;97729.78;;;7.68;64.97
63568;BME280;49715;42.386;20.434;2023-03-01T08:07:09;97721.31;;;7.64;64.60
63568;BME280;49715;42.386;20.434;2023-03-01T08:09:38;97727.97;;;7.68;64.68
63568;BME280;49715;42.386;20.434;2023-03-01T08:12:06;97726.56;;;7.64;64.89
63568;BME280;49715;42.386;20.434;2023-03-01T08:14:33;97729.63;;;7.69;64.67
63568;BME280;49715;42.386;20.434;2023-03-01T08:17:00;97721.63;;;7.71;64.68
63568;BME280;49715;42.386;20.434;2023-03-01T08:19:30;97726.78;;;7.72;64.62
63568;BME280;49715;42.386;20.434;2023-03-01T08:21:56;97719.00;;;7.71;64.68
63568;BME280;49715;42.386;20.434;2023-03-01T08:24:27;97737.84;;;7.76;64.72
63568;BME280;49715;42.386;20.434;2023-03-01T08:30:06;97685.69;;;7.62;64.72
63568;BME280;49715;42.386;20.434;2023-03-01T08:32:39;97690.34;;;7.79;64.55
63568;BME280;49715;42.386;20.434;2023-03-01T08:35:06;97713.75;;;8.03;64.41
63568;BME280;49715;42.386;20.434;2023-03-01T08:37:33;97709.16;;;7.95;64.70
63568;BME280;49715;42.386;20.434;2023-03-01T08:40:00;97706.56;;;8.05;64.50
63568;BME280;49715;42.386;20.434;2023-03-01T08:42:27;97692.22;;;8.09;64.32
63568;BME280;49715;42.386;20.434;2023-03-01T08:44:57;97703.50;;;8.21;64.32
63568;BME280;49715;42.386;20.434;2023-03-01T08:47:23;97711.09;;;8.24;64.19
63568;BME280;49715;42.386;20.434;2023-03-01T08:50:27;97716.69;;;8.31;64.31
63568;BME280;49715;42.386;20.434;2023-03-01T08:52:57;97710.22;;;8.35;64.26
63568;BME280;49715;42.386;20.434;2023-03-01T08:55:24;97682.09;;;8.25;64.04
63568;BME280;49715;42.386;20.434;2023-03-01T08:57:51;97697.91;;;8.35;64.06
63568;BME280;49715;42.386;20.434;2023-03-01T09:00:18;97706.38;;;8.39;64.05
63568;BME280;49715;42.386;20.434;2023-03-01T09:03:04;97648.41;;;8.10;63.90
63568;BME280;49715;42.386;20.434;2023-03-01T09:05:34;97714.00;;;8.42;64.06
63568;BME280;49715;42.386;20.434;2023-03-01T09:08:09;97705.06;;;8.33;64.15
63568;BME280;49715;42.386;20.434;2023-03-01T09:10:44;97708.63;;;8.43;63.74
63568;BME280;49715;42.386;20.434;2023-03-01T09:13:24;97713.22;;;8.51;63.72
63568;BME280;49715;42.386;20.434;2023-03-01T09:15:57;97715.03;;;8.50;63.59
63568;BME280;49715;42.386;20.434;2023-03-01T09:18:27;97697.72;;;8.48;63.72
63568;BME280;49715;42.386;20.434;2023-03-01T09:24:28;97630.94;;;8.41;63.70
63568;BME280;49715;42.386;20.434;2023-03-01T09:26:56;97683.63;;;8.80;63.46
63568;BME280;49715;42.386;20.434;2023-03-01T09:29:30;97668.78;;;8.69;63.05
63568;BME280;49715;42.386;20.434;2023-03-01T09:31:58;97680.16;;;8.79;63.22
63568;BME280;49715;42.386;20.434;2023-03-01T09:34:25;97671.47;;;8.79;63.26
63568;BME280;49715;42.386;20.434;2023-03-01T09:36:51;97682.69;;;8.90;63.50
63568;BME280;49715;42.386;20.434;2023-03-01T09:39:18;97691.00;;;8.95;63.19
63568;BME280;49715;42.386;20.434;2023-03-01T09:42:03;97690.84;;;8.97;62.70
63568;BME280;49715;42.386;20.434;2023-03-01T09:47:20;97653.91;;;8.89;62.75
63568;BME280;49715;42.386;20.434;2023-03-01T09:50:09;97684.94;;;9.05;62.43
63568;BME280;49715;42.386;20.434;2023-03-01T09:53:16;97684.38;;;9.01;62.55
63568;BME280;49715;42.386;20.434;2023-03-01T09:56:03;97670.97;;;9.04;62.72
63568;BME280;49715;42.386;20.434;2023-03-01T09:58:38;97658.66;;;9.05;62.57
63568;BME280;49715;42.386;20.434;2023-03-01T10:09:47;97668.81;;;9.28;62.45
63568;BME280;49715;42.386;20.434;2023-03-01T10:12:26;97668.66;;;9.30;62.26
63568;BME280;49715;42.386;20.434;2023-03-01T10:20:25;97676.41;;;9.41;61.83
63568;BME280;49715;42.386;20.434;2023-03-01T10:22:54;97677.69;;;9.47;62.05
63568;BME280;49715;42.386;20.434;2023-03-01T10:29:11;97672.97;;;9.50;61.57
63568;BME280;49715;42.386;20.434;2023-03-01T10:31:51;97681.69;;;9.51;61.62
63568;BME280;49715;42.386;20.434;2023-03-01T10:36:51;97671.31;;;9.49;61.75
63568;BME280;49715;42.386;20.434;2023-03-01T10:39:22;97679.34;;;9.48;61.67
63568;BME280;49715;42.386;20.434;2023-03-01T10:41:56;97665.19;;;9.39;61.69
63568;BME280;49715;42.386;20.434;2023-03-01T10:47:03;97661.19;;;9.35;61.84
63568;BME280;49715;42.386;20.434;2023-03-01T10:49:31;97643.06;;;9.22;61.92
63568;BME280;49715;42.386;20.434;2023-03-01T10:52:16;97655.50;;;9.20;61.93
63568;BME280;49715;42.386;20.434;2023-03-01T10:55:23;97648.72;;;9.27;61.95
63568;BME280;49715;42.386;20.434;2023-03-01T10:58:16;97648.59;;;9.29;61.75
63568;BME280;49715;42.386;20.434;2023-03-01T11:00:52;97655.66;;;9.38;61.53
63568;BME280;49715;42.386;20.434;2023-03-01T11:03:42;97640.28;;;9.34;61.17
63568;BME280;49715;42.386;20.434;2023-03-01T11:08:47;97632.09;;;9.56;61.34
63568;BME280;49715;42.386;20.434;2023-03-01T11:11:33;97625.06;;;9.66;61.66
63568;BME280;49715;42.386;20.434;2023-03-01T11:14:06;97608.28;;;9.67;61.66
63568;BME280;49715;42.386;20.434;2023-03-01T11:16:36;97630.56;;;9.83;61.56
63568;BME280;49715;42.386;20.434;2023-03-01T11:24:14;97622.22;;;9.97;60.77
63568;BME280;49715;42.386;20.434;2023-03-01T11:26:47;97615.31;;;9.96;60.83
63568;BME280;49715;42.386;20.434;2023-03-01T11:29:43;97612.94;;;9.93;60.70
63568;BME280;49715;42.386;20.434;2023-03-01T11:32:15;97600.47;;;9.85;60.89
63568;BME280;49715;42.386;20.434;2023-03-01T11:34:50;97610.16;;;9.94;60.52
63568;BME280;49715;42.386;20.434;2023-03-01T11:42:55;97599.50;;;10.05;60.75
63568;BME280;49715;42.386;20.434;2023-03-01T11:48:58;97579.75;;;10.10;60.34
63568;BME280;49715;42.386;20.434;2023-03-01T11:54:13;97570.50;;;10.15;60.40
63568;BME280;49715;42.386;20.434;2023-03-01T11:56:54;97548.88;;;10.12;60.49
63568;BME280;49715;42.386;20.434;2023-03-01T12:02:49;97567.94;;;10.23;59.98
63568;BME280;49715;42.386;20.434;2023-03-01T12:11:11;97544.81;;;10.17;60.37
63568;BME280;49715;42.386;20.434;2023-03-01T12:16:34;97562.66;;;10.33;60.17
63568;BME280;49715;42.386;20.434;2023-03-01T12:22:32;97560.84;;;10.34;59.93
63568;BME280;49715;42.386;20.434;2023-03-01T12:31:00;97545.16;;;10.42;59.88
63568;BME280;49715;42.386;20.434;2023-03-01T12:33:57;97542.97;;;10.37;59.93
63568;BME280;49715;42.386;20.434;2023-03-01T12:50:47;97538.00;;;10.79;59.42
63568;BME280;49715;42.386;20.434;2023-03-01T12:53:31;97538.13;;;10.78;59.30
63568;BME280;49715;42.386;20.434;2023-03-01T12:56:20;97547.03;;;10.77;59.46
63568;BME280;49715;42.386;20.434;2023-03-01T13:05:28;97552.16;;;10.78;59.46
63568;BME280;49715;42.386;20.434;2023-03-01T13:08:31;97542.97;;;10.82;59.36
63568;BME280;49715;42.386;20.434;2023-03-01T13:11:19;97550.59;;;10.86;59.60
63568;BME280;49715;42.386;20.434;2023-03-01T13:16:48;97554.50;;;10.99;59.73
63568;BME280;49715;42.386;20.434;2023-03-01T13:19:36;97541.16;;;11.01;59.15
63568;BME280;49715;42.386;20.434;2023-03-01T13:22:26;97533.78;;;11.04;59.01
63568;BME280;49715;42.386;20.434;2023-03-01T13:31:07;97519.03;;;10.94;59.03
63568;BME280;49715;42.386;20.434;2023-03-01T13:33:56;97522.13;;;10.89;58.89
63568;BME280;49715;42.386;20.434;2023-03-01T13:36:45;97523.06;;;10.88;59.20
63568;BME280;49715;42.386;20.434;2023-03-01T13:39:46;97527.13;;;10.82;58.86
63568;BME280;49715;42.386;20.434;2023-03-01T13:42:36;97525.31;;;10.83;59.06
63568;BME280;49715;42.386;20.434;2023-03-01T13:47:55;97505.59;;;10.69;59.12
63568;BME280;49715;42.386;20.434;2023-03-01T13:50:27;97503.47;;;10.73;58.78
63568;BME280;49715;42.386;20.434;2023-03-01T13:55:41;97501.59;;;10.65;59.24
63568;BME280;49715;42.386;20.434;2023-03-01T13:58:28;97521.63;;;10.58;59.51
63568;BME280;49715;42.386;20.434;2023-03-01T14:01:07;97517.09;;;10.50;59.50
63568;BME280;49715;42.386;20.434;2023-03-01T14:03:46;97501.34;;;10.41;59.70
63568;BME280;49715;42.386;20.434;2023-03-01T14:06:16;97511.88;;;10.41;59.79
63568;BME280;49715;42.386;20.434;2023-03-01T14:20:20;97510.41;;;10.28;59.64
63568;BME280;49715;42.386;20.434;2023-03-01T14:22:55;97505.28;;;10.27;59.74
63568;BME280;49715;42.386;20.434;2023-03-01T14:26:43;97502.66;;;10.27;59.79
63568;BME280;49715;42.386;20.434;2023-03-01T14:29:39;97508.75;;;10.27;59.63
63568;BME280;49715;42.386;20.434;2023-03-01T14:32:26;97498.78;;;10.21;60.01
63568;BME280;49715;42.386;20.434;2023-03-01T14:34:53;97497.25;;;10.28;59.65
63568;BME280;49715;42.386;20.434;2023-03-01T14:37:31;97503.91;;;10.23;59.69
63568;BME280;49715;42.386;20.434;2023-03-01T14:40:01;97484.00;;;10.11;59.84
63568;BME280;49715;42.386;20.434;2023-03-01T14:42:37;97479.19;;;10.06;59.93
63568;BME280;49715;42.386;20.434;2023-03-01T14:45:11;97488.19;;;10.03;59.89
63568;BME280;49715;42.386;20.434;2023-03-01T14:47:39;97482.28;;;9.92;60.15
63568;BME280;49715;42.386;20.434;2023-03-01T14:50:27;97501.38;;;9.94;60.43
63568;BME280;49715;42.386;20.434;2023-03-01T14:52:58;97494.88;;;9.98;60.23
63568;BME280;49715;42.386;20.434;2023-03-01T14:56:34;97478.69;;;9.93;60.15
63568;BME280;49715;42.386;20.434;2023-03-01T14:58:41;97472.88;;;9.89;60.25
63568;BME280;49715;42.386;20.434;2023-03-01T15:01:13;97489.25;;;9.83;60.99
63568;BME280;49715;42.386;20.434;2023-03-01T15:03:53;97486.47;;;9.85;60.03
63568;BME280;49715;42.386;20.434;2023-03-01T15:06:25;97482.75;;;9.77;60.02
63568;BME280;49715;42.386;20.434;2023-03-01T15:08:57;97479.84;;;9.71;60.06
63568;BME280;49715;42.386;20.434;2023-03-01T15:11:32;97487.75;;;9.71;60.37
63568;BME280;49715;42.386;20.434;2023-03-01T15:14:05;97481.56;;;9.62;60.50
63568;BME280;49715;42.386;20.434;2023-03-01T15:16:49;97486.81;;;9.62;60.50
63568;BME280;49715;42.386;20.434;2023-03-01T15:19:18;97476.59;;;9.49;60.73
63568;BME280;49715;42.386;20.434;2023-03-01T15:21:48;97485.16;;;9.51;60.88
63568;BME280;49715;42.386;20.434;2023-03-01T15:24:23;97487.41;;;9.46;60.89
63568;BME280;49715;42.386;20.434;2023-03-01T15:26:55;97484.38;;;9.41;60.80
63568;BME280;49715;42.386;20.434;2023-03-01T15:29:25;97487.31;;;9.38;61.05
63568;BME280;49715;42.386;20.434;2023-03-01T15:32:06;97465.03;;;9.33;61.05
63568;BME280;49715;42.386;20.434;2023-03-01T15:34:37;97456.44;;;9.31;61.13
63568;BME280;49715;42.386;20.434;2023-03-01T15:40:25;97468.34;;;9.25;61.55
63568;BME280;49715;42.386;20.434;2023-03-01T15:42:58;97461.59;;;9.22;61.43
63568;BME280;49715;42.386;20.434;2023-03-01T15:45:29;97434.34;;;9.14;61.65
63568;BME280;49715;42.386;20.434;2023-03-01T15:48:02;97425.63;;;9.13;61.94
63568;BME280;49715;42.386;20.434;2023-03-01T15:50:36;97439.84;;;9.11;62.24